Time;durP1;ratioP1;P1;durP2;ratioP2;P2;SDS_P1;SDS_P2;PMS_P1;PMS_P2;Temp;Humidity;BMP_temperature;BMP_pressure;BME280_temperature;BME280_humidity;BME280_pressure;Samples;Min_cycle;Max_cycle;Signal;HPM_P1;HPM_P2
2022/04/18 00:00:31;;;;;;;8.88;3.80;;;6.10;58.50;;;4.65;59.20;96350.16;4871014;28;20362;-63
2022/04/18 00:07:58;;;;;;;8.68;3.35;;;6.10;58.50;;;4.58;59.65;96346.50;4785614;29;20544;-63
2022/04/18 00:11:50;;;;;;;7.60;2.90;;;6.10;58.50;;;4.59;59.44;96340.34;4806368;29;20456;-63
2022/04/18 00:22:42;;;;;;;5.13;3.38;;;6.10;59.00;;;4.59;59.29;96335.13;4757468;29;20548;-61
2022/04/18 00:48:52;;;;;;;;;;;;;;;;;;;;;
2022/04/18 01:03:14;;;;;;;6.50;3.50;;;5.70;60.30;;;4.18;61.26;96303.41;4860182;28;20315;-62
2022/04/18 01:30:25;;;;;;;7.93;4.35;;;5.40;61.80;;;3.84;60.05;96284.06;4803304;29;20936;-62
2022/04/18 01:33:00;;;;;;;8.07;4.28;;;5.30;61.80;;;3.82;61.40;96278.19;4803268;29;20054;-61
2022/04/18 01:35:30;;;;;;;6.63;4.55;;;5.40;62.20;;;3.81;59.42;96276.56;4838217;29;20324;-61
2022/04/18 01:42:01;;;;;;;8.00;3.92;;;5.40;62.40;;;3.78;62.89;96276.84;4932790;28;20068;-61
2022/04/18 01:44:34;;;;;;;7.03;4.00;;;5.40;62.70;;;3.77;61.15;96267.41;4921871;28;20240;-61
2022/04/18 01:51:08;;;;;;;6.53;4.13;;;5.40;62.90;;;3.76;63.34;96263.16;4894631;28;20341;-60
2022/04/18 01:53:38;;;;;;;5.88;3.88;;;5.30;62.90;;;3.72;60.42;96260.03;4868472;28;20070;-60
2022/04/18 01:56:25;;;;;;;6.28;4.00;;;5.30;63.40;;;3.71;63.67;96270.59;4919470;28;20255;-61
2022/04/18 02:03:22;;;;;;;5.40;4.00;;;5.10;63.60;;;3.56;62.12;96247.63;4952880;28;20506;-61
2022/04/18 02:06:36;;;;;;;6.40;4.07;;;5.10;63.80;;;3.51;64.54;96243.81;4923552;28;20340;-60
2022/04/18 02:09:19;;;;;;;6.85;4.07;;;5.10;63.80;;;3.46;63.97;96246.84;4937991;28;20042;-60
2022/04/18 02:12:25;;;;;;;6.88;4.45;;;5.00;63.90;;;3.42;64.39;96244.69;4891105;28;20340;-61
2022/04/18 02:15:15;;;;;;;8.05;4.32;;;5.00;64.30;;;3.36;63.51;96244.25;4892873;28;20329;-61
2022/04/18 02:17:50;;;;;;;6.18;4.32;;;4.90;64.30;;;3.34;63.52;96242.75;4870721;28;20317;-61
2022/04/18 02:24:55;;;;;;;6.97;4.45;;;4.90;64.80;;;3.29;64.85;96242.38;4866338;28;20720;-61
2022/04/18 02:30:52;;;;;;;5.95;3.85;;;4.90;63.80;;;3.29;63.87;96234.56;4887445;28;20361;-61
2022/04/18 02:37:54;;;;;;;7.22;4.57;;;5.00;63.60;;;3.34;64.79;96227.16;4878353;28;20531;-61
2022/04/18 02:41:12;;;;;;;6.78;4.13;;;5.00;63.60;;;3.34;63.17;96227.16;4896932;28;20108;-61
2022/04/18 02:44:10;;;;;;;;;;;;;;;;;;;;;
2022/04/18 02:47:06;;;;;;;6.75;4.32;;;5.00;63.40;;;3.37;64.15;96216.47;4866536;28;20552;-61
2022/04/18 02:49:37;;;;;;;7.32;4.47;;;5.00;63.40;;;3.40;62.68;96218.00;4916921;28;20070;-61
2022/04/18 03:04:04;;;;;;;6.87;4.57;;;5.00;63.20;;;3.36;64.81;96204.44;4881652;29;20617;-61
2022/04/18 03:12:21;;;;;;;9.05;4.75;;;5.00;64.00;;;3.24;65.50;96215.97;4846563;29;20227;-62
2022/04/18 03:14:49;;;;;;;8.75;4.85;;;4.80;64.40;;;3.18;65.33;96200.94;4810990;29;20390;-61
2022/04/18 03:17:45;;;;;;;7.68;3.95;;;4.70;64.50;;;3.15;64.38;96196.00;4904383;28;20042;-62
2022/04/18 03:20:18;;;;;;;6.43;4.07;;;4.70;64.30;;;3.11;63.57;96189.47;4897323;28;20072;-61
2022/04/18 03:23:32;;;;;;;7.70;4.90;;;4.60;64.40;;;3.12;65.12;96188.50;4846693;28;20318;-62
2022/04/18 03:29:19;;;;;;;9.67;4.53;;;4.70;63.90;;;3.08;62.57;96181.00;4859822;28;20502;-62
2022/04/18 03:31:45;;;;;;;8.25;4.90;;;4.70;63.50;;;3.10;62.56;96178.25;4851155;28;20489;-63
2022/04/18 03:34:11;;;;;;;8.65;5.13;;;4.80;63.50;;;3.08;62.65;96175.78;4900754;28;20469;-61
2022/04/18 03:42:09;;;;;;;5.75;4.18;;;4.70;63.90;;;3.07;64.04;96173.34;4929042;28;20044;-62
2022/04/18 03:44:44;;;;;;;7.95;4.25;;;4.70;63.90;;;3.06;64.20;96177.72;4938251;28;20220;-61
2022/04/18 03:47:16;;;;;;;17.08;11.02;;;4.70;63.50;;;3.08;64.32;96173.19;4923990;28;20600;-61
2022/04/18 03:49:42;;;;;;;12.13;6.78;;;4.80;64.00;;;3.10;63.14;96172.22;4902077;28;20339;-61
2022/04/18 03:52:09;;;;;;;8.50;4.82;;;4.80;63.60;;;3.10;62.63;96172.22;4888249;28;20348;-62
2022/04/18 03:54:35;;;;;;;8.77;5.30;;;4.80;62.90;;;3.12;62.91;96175.50;4894452;28;20554;-62
2022/04/18 03:57:04;;;;;;;8.75;4.45;;;4.80;62.50;;;3.12;63.11;96170.31;4921640;28;20696;-61
2022/04/18 03:59:30;;;;;;;6.78;4.25;;;4.80;62.50;;;3.10;62.66;96170.44;4893529;28;20292;-62
2022/04/18 04:01:56;;;;;;;6.38;3.85;;;4.80;62.20;;;3.08;62.58;96162.78;4851616;28;20359;-62
2022/04/18 04:04:22;;;;;;;5.80;3.97;;;4.80;62.20;;;3.10;62.40;96167.03;4897831;28;20268;-62
2022/04/18 04:06:48;;;;;;;7.97;3.95;;;4.80;61.90;;;3.12;62.82;96178.09;4888885;28;20454;-62
2022/04/18 04:09:14;;;;;;;9.48;4.53;;;4.80;62.20;;;3.10;62.29;96178.25;4880437;28;20573;-63
2022/04/18 04:11:41;;;;;;;8.57;4.25;;;4.70;63.00;;;3.10;63.18;96174.81;4917452;28;20455;-62
2022/04/18 04:14:07;;;;;;;7.07;4.28;;;4.70;63.50;;;3.05;63.10;96170.06;4894872;28;20204;-61
2022/04/18 04:16:33;;;;;;;6.70;4.10;;;4.70;63.50;;;3.01;62.92;96169.53;4858129;28;20359;-62
2022/04/18 04:18:59;;;;;;;7.22;3.90;;;4.70;63.40;;;2.97;63.14;96168.19;4863064;28;20664;-61
2022/04/18 04:21:25;;;;;;;6.07;4.03;;;4.70;63.70;;;2.96;63.33;96176.09;4869990;28;20573;-65
2022/04/18 04:23:51;;;;;;;7.78;4.47;;;4.60;63.90;;;2.90;63.51;96171.44;4917362;28;20432;-66
2022/04/18 04:26:17;;;;;;;11.05;4.30;;;4.60;64.00;;;2.84;63.92;96177.22;4893646;28;20348;-66
2022/04/18 04:28:43;;;;;;;7.75;4.40;;;4.50;63.90;;;2.79;63.27;96175.03;4892188;28;20292;-64
2022/04/18 04:31:10;;;;;;;7.68;4.45;;;4.40;64.20;;;2.75;63.41;96176.28;4892923;28;20398;-66
2022/04/18 04:33:36;;;;;;;7.05;4.22;;;4.40;64.20;;;2.71;63.87;96170.50;4873838;28;20326;-64
2022/04/18 04:36:02;;;;;;;9.40;4.22;;;4.40;64.10;;;2.69;63.73;96174.22;4886426;28;20765;-65
2022/04/18 04:38:28;;;;;;;4.68;3.47;;;4.40;64.20;;;2.66;63.85;96169.31;4889143;28;20351;-62
2022/04/18 04:40:55;;;;;;;6.40;4.40;;;4.30;64.40;;;2.60;64.18;96169.84;4874178;28;20372;-62
2022/04/18 04:43:21;;;;;;;7.28;4.45;;;4.30;64.40;;;2.58;63.79;96171.78;4848346;28;20619;-61
2022/04/18 04:45:47;;;;;;;6.65;4.30;;;4.30;64.40;;;2.57;64.65;96164.94;4880699;28;20459;-63
2022/04/18 04:48:13;;;;;;;19.17;12.70;;;4.30;64.30;;;2.57;63.88;96165.75;4881239;28;20360;-63
2022/04/18 04:50:41;;;;;;;55.65;34.72;;;4.30;64.50;;;2.59;64.06;96166.44;4857232;28;20577;-63
2022/04/18 04:53:08;;;;;;;12.45;9.15;;;4.40;64.70;;;2.61;64.38;96169.72;4900779;28;20204;-63
2022/04/18 04:55:37;;;;;;;27.88;15.77;;;4.40;64.20;;;2.65;65.04;96168.47;4897184;28;20343;-63
2022/04/18 04:58:03;;;;;;;34.97;23.67;;;4.50;64.60;;;2.69;64.82;96167.25;4893997;28;20585;-63
2022/04/18 05:00:30;;;;;;;37.58;22.48;;;4.50;64.40;;;2.73;64.75;96167.81;4871482;28;20482;-63
2022/04/18 05:02:56;;;;;;;26.58;17.67;;;4.60;64.40;;;2.75;64.56;96164.13;4864662;28;20407;-61
2022/04/18 05:05:23;;;;;;;25.83;16.17;;;4.60;64.20;;;2.80;64.64;96170.66;4881369;28;20311;-62
2022/04/18 05:07:49;;;;;;;11.57;7.53;;;4.70;63.80;;;2.83;64.65;96166.00;4869826;28;20344;-62
2022/04/18 05:10:16;;;;;;;10.13;5.22;;;4.70;63.30;;;2.87;64.10;96169.94;4887277;28;20680;-62
2022/04/18 05:12:42;;;;;;;6.55;4.40;;;4.70;63.50;;;2.93;64.37;96161.59;4867208;28;20484;-66
2022/04/18 05:15:09;;;;;;;39.17;23.17;;;4.90;63.40;;;2.98;64.46;96159.41;4863308;28;20324;-66
2022/04/18 05:17:35;;;;;;;39.75;22.60;;;4.90;63.00;;;3.05;64.45;96165.69;4894361;28;20220;-65
2022/04/18 05:20:03;;;;;;;13.70;8.40;;;5.00;63.00;;;3.12;64.47;96165.09;4903819;28;20631;-65
2022/04/18 05:22:29;;;;;;;10.80;6.13;;;5.10;63.00;;;3.20;64.88;96170.44;4869284;28;20431;-62
2022/04/18 05:24:55;;;;;;;58.00;39.15;;;5.20;63.10;;;3.28;64.77;96175.75;4892306;28;20246;-61
2022/04/18 05:27:22;;;;;;;35.03;23.60;;;5.40;63.30;;;3.37;64.82;96177.47;4902134;28;20343;-62
2022/04/18 05:29:48;;;;;;;11.20;7.38;;;5.50;63.20;;;3.45;65.27;96177.59;4885800;28;20491;-65
2022/04/18 05:32:14;;;;;;;9.68;5.25;;;5.60;62.90;;;3.53;65.17;96175.09;4870212;28;20391;-66
2022/04/18 05:34:40;;;;;;;8.35;5.18;;;5.70;63.00;;;3.64;65.08;96171.50;4885854;28;20383;-67
2022/04/18 05:37:07;;;;;;;5.88;3.72;;;5.80;62.50;;;3.77;64.53;96173.75;4881348;28;20315;-68
2022/04/18 05:39:34;;;;;;;6.10;4.22;;;6.00;61.30;;;3.88;64.44;96174.38;4873210;28;20847;-65
2022/04/18 05:42:00;;;;;;;7.13;4.28;;;6.20;60.30;;;4.02;63.87;96173.06;4897690;28;20454;-65
2022/04/18 05:44:26;;;;;;;8.82;4.40;;;6.30;59.00;;;4.18;63.53;96175.84;4864152;28;20234;-64
2022/04/18 05:46:52;;;;;;;5.90;3.83;;;6.60;57.80;;;4.36;62.89;96172.44;4886257;28;20374;-65
2022/04/18 05:49:18;;;;;;;8.20;3.97;;;6.80;57.00;;;4.53;62.93;96171.63;4859131;28;20853;-65
2022/04/18 05:51:44;;;;;;;5.47;3.90;;;7.00;56.30;;;4.70;62.53;96175.16;4885491;28;20446;-65
2022/04/18 05:54:10;;;;;;;6.28;3.85;;;7.10;55.50;;;4.86;61.95;96173.50;4899534;28;20387;-64
2022/04/18 05:56:37;;;;;;;8.90;3.50;;;7.30;54.60;;;5.04;60.97;96177.88;4887040;28;20424;-63
2022/04/18 05:59:03;;;;;;;7.75;4.22;;;7.50;53.90;;;5.17;60.56;96173.88;4901808;28;20296;-62
2022/04/18 06:01:29;;;;;;;7.00;4.45;;;7.70;54.20;;;5.35;60.17;96176.41;4898889;28;20724;-61
2022/04/18 06:03:55;;;;;;;19.83;13.52;;;7.90;53.30;;;5.48;60.84;96171.63;4886554;28;20339;-61
2022/04/18 06:06:22;;;;;;;9.52;6.65;;;8.10;52.80;;;5.66;59.43;96171.53;4874033;28;20393;-62
2022/04/18 06:08:48;;;;;;;6.53;4.97;;;8.20;51.50;;;5.81;59.03;96169.13;4869391;28;20392;-62
2022/04/18 06:11:14;;;;;;;19.15;10.93;;;8.40;51.70;;;5.95;59.40;96168.56;4893452;28;20359;-62
2022/04/18 06:13:40;;;;;;;14.07;7.72;;;8.60;51.80;;;6.10;59.50;96166.97;4904486;28;20311;-62
2022/04/18 06:16:06;;;;;;;6.38;4.30;;;8.70;51.20;;;6.27;58.15;96172.22;4900451;28;20553;-63
2022/04/18 06:18:33;;;;;;;6.55;4.13;;;8.90;50.70;;;6.40;58.23;96175.22;4885493;28;20326;-62
2022/04/18 06:20:59;;;;;;;5.63;3.80;;;8.90;49.60;;;6.46;57.04;96171.94;4876876;28;20367;-61
2022/04/18 06:23:25;;;;;;;7.35;3.90;;;9.00;49.40;;;6.57;57.83;96174.25;4906272;28;20411;-64
2022/04/18 06:25:51;;;;;;;6.50;3.80;;;9.10;49.60;;;6.69;56.37;96170.31;4914625;28;20378;-64
2022/04/18 06:28:19;;;;;;;5.95;3.85;;;9.30;48.90;;;6.83;56.84;96162.81;4877123;28;20509;-64
2022/04/18 06:30:45;;;;;;;8.25;5.40;;;9.40;48.50;;;6.93;56.06;96163.47;4914680;28;20497;-63
2022/04/18 06:33:12;;;;;;;7.18;4.88;;;9.60;48.50;;;7.06;56.10;96166.41;4882510;28;20399;-63
2022/04/18 06:35:38;;;;;;;6.18;3.85;;;9.70;47.90;;;7.18;55.35;96162.44;4886303;28;20412;-64
2022/04/18 06:38:05;;;;;;;5.28;3.70;;;9.90;47.60;;;7.36;55.09;96159.63;4883312;28;20327;-63
2022/04/18 06:40:31;;;;;;;7.00;4.35;;;9.90;46.50;;;7.45;54.05;96160.41;4865361;28;20431;-62
2022/04/18 06:42:57;;;;;;;5.50;3.72;;;9.90;45.70;;;7.57;53.92;96161.72;4867959;28;20296;-63
2022/04/18 06:45:24;;;;;;;5.22;3.97;;;10.10;46.20;;;7.67;53.19;96151.84;4862850;28;20329;-63
2022/04/18 06:47:50;;;;;;;6.38;3.95;;;10.10;45.10;;;7.82;52.94;96165.06;4857542;28;20321;-63
2022/04/18 06:50:20;;;;;;;5.85;3.83;;;10.40;45.70;;;8.03;52.67;96159.22;4882700;28;20497;-64
2022/04/18 06:52:49;;;;;;;7.20;3.88;;;10.60;46.10;;;8.21;52.58;96158.00;4883990;28;20478;-64
2022/04/18 06:55:15;;;;;;;5.13;3.72;;;10.80;45.30;;;8.37;51.73;96159.72;4848783;28;20204;-63
2022/04/18 06:57:42;;;;;;;4.63;3.63;;;10.90;44.20;;;8.52;51.24;96168.47;4868742;28;20335;-63
2022/04/18 07:00:08;;;;;;;6.18;3.70;;;11.00;44.10;;;8.62;50.63;96162.19;4884038;28;20325;-63
2022/04/18 07:02:34;;;;;;;5.53;3.67;;;11.00;43.70;;;8.77;49.61;96160.41;4882986;28;20453;-63
2022/04/18 07:05:00;;;;;;;7.28;3.83;;;11.20;42.70;;;8.83;49.99;96155.31;4884034;28;20351;-63
2022/04/18 07:07:27;;;;;;;5.35;3.80;;;11.20;42.70;;;9.00;49.36;96163.03;4881196;28;20321;-63
2022/04/18 07:09:53;;;;;;;15.98;9.18;;;11.60;42.50;;;9.14;49.29;96160.44;4885643;28;20324;-65
2022/04/18 07:12:22;;;;;;;6.28;4.53;;;11.80;42.80;;;9.33;49.15;96156.50;4859354;28;20356;-63
2022/04/18 07:14:49;;;;;;;4.75;3.33;;;12.10;42.20;;;9.47;48.50;96153.03;4859478;28;20349;-63
2022/04/18 07:17:15;;;;;;;4.35;3.40;;;12.30;40.60;;;9.64;47.26;96161.56;4874466;28;20328;-63
2022/04/18 07:19:41;;;;;;;4.55;3.25;;;12.60;40.00;;;9.79;47.91;96151.06;4858088;28;20434;-63
2022/04/18 07:22:08;;;;;;;4.70;3.08;;;12.60;39.20;;;9.95;46.45;96160.53;4886331;28;20343;-63
2022/04/18 07:24:34;;;;;;;5.70;3.50;;;12.90;39.10;;;10.12;47.58;96165.41;4877632;28;20501;-62
2022/04/18 07:27:03;;;;;;;5.60;3.20;;;13.10;38.60;;;10.31;46.43;96160.59;4876889;28;20400;-64
2022/04/18 07:29:29;;;;;;;4.35;3.22;;;13.40;38.50;;;10.51;46.62;96160.81;4886061;28;20350;-64
2022/04/18 07:31:55;;;;;;;5.60;4.38;;;13.60;38.00;;;10.71;45.75;96157.38;4850961;28;20320;-64
2022/04/18 07:34:21;;;;;;;5.20;3.38;;;14.00;37.20;;;10.92;45.73;96147.84;4858638;28;20215;-64
2022/04/18 07:36:48;;;;;;;5.15;3.00;;;14.20;36.10;;;11.15;44.21;96158.97;4840666;28;20220;-64
2022/04/18 07:39:14;;;;;;;5.03;3.03;;;14.60;36.00;;;11.39;44.89;96149.00;4864937;28;20336;-64
2022/04/18 07:41:40;;;;;;;4.10;2.83;;;14.80;34.80;;;11.63;43.64;96153.81;4879139;28;20288;-64
2022/04/18 07:44:06;;;;;;;4.78;2.88;;;15.10;35.00;;;11.86;43.57;96157.03;4886484;28;20387;-62
2022/04/18 07:46:32;;;;;;;4.50;3.03;;;15.30;34.30;;;12.09;42.72;96161.19;4906338;28;20280;-63
2022/04/18 07:48:59;;;;;;;4.18;3.08;;;15.40;34.00;;;12.29;42.57;96155.97;4909362;28;20390;-64
2022/04/18 07:51:43;;;;;;;7.13;4.80;;;15.60;33.20;;;12.55;42.20;96148.94;4885056;28;20677;-64
2022/04/18 07:54:14;;;;;;;7.40;5.65;;;16.10;33.20;;;12.91;42.92;96145.16;4926081;28;20263;-63
2022/04/18 07:56:41;;;;;;;3.65;2.83;;;16.50;33.10;;;13.26;41.26;96151.06;4940515;28;20041;-63
2022/04/18 07:59:07;;;;;;;3.92;2.50;;;16.60;32.10;;;13.49;40.53;96148.00;4914864;28;20343;-64
2022/04/18 08:01:33;;;;;;;6.80;2.78;;;16.80;32.10;;;13.78;39.75;96146.72;4865873;28;20410;-66
2022/04/18 08:04:00;;;;;;;4.45;2.47;;;17.10;31.20;;;14.03;39.67;96145.03;4848547;28;20704;-63
2022/04/18 08:06:27;;;;;;;2.97;2.30;;;17.20;32.00;;;14.32;39.57;96143.66;4899257;28;20215;-64
2022/04/18 08:08:53;;;;;;;3.72;2.25;;;17.60;30.70;;;14.58;37.96;96137.44;4901563;28;20493;-62
2022/04/18 08:11:20;;;;;;;5.93;2.45;;;17.80;30.40;;;14.81;37.57;96136.91;4886841;28;20126;-63
2022/04/18 08:13:47;;;;;;;3.60;2.50;;;18.10;28.90;;;15.00;37.32;96140.44;4881939;28;20321;-64
2022/04/18 08:16:13;;;;;;;4.85;2.42;;;18.10;28.80;;;15.18;37.42;96142.34;4866692;28;20479;-65
2022/04/18 08:18:43;;;;;;;5.22;2.92;;;18.20;28.50;;;15.32;36.21;96138.53;4896760;28;20542;-65
2022/04/18 08:21:09;;;;;;;5.38;3.60;;;18.30;29.70;;;15.47;37.46;96140.84;4885693;28;20402;-65
2022/04/18 08:23:35;;;;;;;3.13;2.35;;;18.60;30.40;;;15.61;37.28;96137.91;4878964;28;20665;-66
2022/04/18 08:26:03;;;;;;;3.88;2.40;;;18.60;28.70;;;15.80;35.53;96141.34;4881050;28;20292;-67
2022/04/18 08:28:29;;;;;;;4.90;2.35;;;19.00;28.50;;;16.05;35.49;96143.13;4925194;28;20474;-65
2022/04/18 08:30:54;;;;;;;3.97;2.10;;;19.30;27.90;;;16.28;35.70;96142.44;4939711;28;20864;-65
2022/04/18 08:33:21;;;;;;;3.40;2.35;;;19.60;28.50;;;16.43;35.51;96141.03;4923337;28;20311;-64
2022/04/18 08:35:47;;;;;;;8.02;5.43;;;19.60;27.70;;;16.54;34.65;96148.25;4862139;28;20223;-65
2022/04/18 08:38:13;;;;;;;3.42;2.25;;;19.70;26.70;;;16.62;34.46;96144.44;4878780;28;20423;-66
2022/04/18 08:40:42;;;;;;;3.70;2.17;;;19.60;26.80;;;16.78;33.71;96138.53;4909917;28;20386;-66
2022/04/18 08:43:08;;;;;;;2.80;1.92;;;19.90;26.90;;;16.88;33.93;96132.66;4872034;28;20375;-67
2022/04/18 08:45:35;;;;;;;3.15;2.03;;;20.10;26.50;;;16.90;33.75;96143.88;4897726;28;20348;-67
2022/04/18 08:53:31;;;;;;;2.35;1.80;;;20.50;26.10;;;17.36;32.22;96134.34;4899243;28;20220;-66
2022/04/18 08:56:01;;;;;;;3.33;2.15;;;20.70;24.40;;;17.45;32.55;96127.66;4892854;28;20375;-67
2022/04/18 08:58:27;;;;;;;3.67;2.10;;;20.80;25.00;;;17.54;32.00;96130.78;4887126;28;20371;-68
2022/04/18 09:00:57;;;;;;;3.25;1.95;;;20.90;24.90;;;17.66;32.04;96128.94;4875184;28;20514;-69
2022/04/18 09:03:23;;;;;;;2.73;1.90;;;21.10;25.10;;;17.85;32.68;96127.75;4879853;28;20217;-66
2022/04/18 09:05:49;;;;;;;2.28;1.88;;;21.50;25.10;;;18.04;31.79;96123.91;4887937;28;20514;-66
2022/04/18 09:08:15;;;;;;;3.97;1.90;;;21.60;23.90;;;18.07;31.82;96130.63;4886271;28;20430;-67
2022/04/18 09:10:42;;;;;;;4.85;2.47;;;21.40;24.00;;;18.09;31.13;96133.84;4906021;28;20489;-65
2022/04/18 09:13:11;;;;;;;3.47;1.98;;;21.30;23.40;;;18.17;30.66;96135.34;4886045;28;20359;-68
2022/04/18 09:15:48;;;;;;;2.83;1.67;;;21.60;23.80;;;18.40;28.53;96121.97;4899778;28;20839;-69
2022/04/18 09:18:24;;;;;;;3.33;1.80;;;21.90;23.30;;;18.51;29.07;96122.94;4872516;28;20517;-63
2022/04/18 09:20:54;;;;;;;9.25;6.80;;;22.00;23.00;;;18.60;30.86;96119.69;4885833;28;20858;-63
2022/04/18 09:23:31;;;;;;;5.80;3.75;;;22.00;23.50;;;18.79;27.42;96114.19;4901358;28;20505;-64
2022/04/18 09:26:10;;;;;;;3.83;2.20;;;22.40;22.50;;;18.95;27.85;96110.72;4899960;28;20357;-64
2022/04/18 09:28:40;;;;;;;3.35;2.30;;;22.60;21.90;;;19.06;29.12;96109.03;4879942;28;20538;-63
2022/04/18 09:31:08;;;;;;;4.47;1.83;;;22.70;21.80;;;19.28;27.73;96109.94;4869373;28;20349;-62
2022/04/18 09:33:44;;;;;;;3.15;1.80;;;23.10;21.20;;;19.47;27.61;96102.47;4900749;28;20286;-64
2022/04/18 09:36:17;;;;;;;2.78;1.95;;;23.50;22.30;;;19.71;27.67;96105.78;4879506;28;20383;-62
2022/04/18 09:38:47;;;;;;;12.00;9.27;;;23.70;21.10;;;19.93;28.08;96117.28;4917644;28;20477;-62
2022/04/18 09:41:16;;;;;;;6.82;5.32;;;24.10;20.60;;;20.09;27.76;96103.06;4915731;28;20324;-63
2022/04/18 09:43:46;;;;;;;4.90;2.22;;;24.10;19.90;;;20.12;25.97;96113.25;4933756;28;20649;-62
2022/04/18 09:46:13;;;;;;;4.05;2.47;;;24.10;20.20;;;20.29;27.40;96112.38;4924464;28;20045;-62
2022/04/18 09:48:42;;;;;;;4.22;2.30;;;24.40;20.60;;;20.50;25.20;96095.53;4908059;28;20042;-63
2022/04/18 09:51:13;;;;;;;4.40;2.30;;;24.40;18.70;;;20.55;25.97;96108.97;4937503;28;20606;-63
2022/04/18 09:53:43;;;;;;;2.92;1.77;;;24.30;20.00;;;20.75;27.16;96103.00;4886442;28;20204;-64
2022/04/18 09:56:17;;;;;;;4.32;2.25;;;24.90;21.10;;;20.97;26.45;96101.06;4905991;28;20671;-62
2022/04/18 09:58:43;;;;;;;4.55;2.45;;;25.30;20.20;;;21.22;27.13;96092.44;4885427;28;20368;-64
2022/04/18 10:01:10;;;;;;;4.05;2.47;;;25.80;20.30;;;21.34;26.66;96103.03;4905079;28;20400;-65
2022/04/18 10:03:36;;;;;;;2.38;1.45;;;25.90;19.00;;;21.43;25.70;96103.34;4877059;28;20262;-64
2022/04/18 10:06:03;;;;;;;3.78;2.00;;;26.00;18.90;;;21.45;26.05;96099.34;4872371;28;20636;-64
2022/04/18 10:08:29;;;;;;;3.00;2.00;;;26.30;19.10;;;21.55;26.22;96095.94;4846058;28;20215;-64
2022/04/18 10:10:59;;;;;;;3.45;1.90;;;26.30;18.80;;;21.80;25.40;96095.28;4861777;28;20355;-66
2022/04/18 10:13:26;;;;;;;4.13;2.17;;;26.60;17.90;;;21.93;25.99;96092.91;4879485;28;20475;-65
2022/04/18 10:15:53;;;;;;;3.65;1.98;;;27.00;18.50;;;22.05;25.18;96097.31;4897952;28;20399;-64
2022/04/18 10:18:19;;;;;;;2.65;1.80;;;27.20;17.90;;;22.06;25.56;96093.56;4882751;28;20220;-65
2022/04/18 10:21:13;;;;;;;2.55;1.65;;;27.20;17.40;;;22.18;23.08;96086.09;4900377;28;20490;-64
2022/04/18 10:24:02;;;;;;;3.05;2.00;;;27.50;17.90;;;22.39;24.01;96074.38;4901385;28;20554;-63
2022/04/18 10:27:08;;;;;;;3.63;2.40;;;28.10;17.40;;;22.56;23.52;96080.31;4903137;28;20486;-64
2022/04/18 10:29:41;;;;;;;2.25;1.95;;;28.40;17.30;;;22.75;24.09;96075.25;4900911;28;20724;-65
2022/04/18 10:32:09;;;;;;;3.28;1.80;;;28.60;16.50;;;22.92;24.38;96083.09;4864327;28;20297;-66
2022/04/18 10:34:35;;;;;;;2.70;1.60;;;29.20;16.40;;;23.06;24.74;96073.41;4854618;28;20461;-66
2022/04/18 10:37:03;;;;;;;2.83;1.58;;;29.40;15.40;;;23.27;23.41;96068.84;4902496;28;20410;-67
2022/04/18 10:39:36;;;;;;;2.80;1.60;;;29.70;15.90;;;23.49;22.73;96073.94;4900520;28;20515;-65
2022/04/18 10:42:23;;;;;;;4.25;1.70;;;29.90;15.70;;;23.83;22.45;96071.47;4887197;28;20701;-61
2022/04/18 10:45:08;;;;;;;3.35;1.75;;;30.10;15.40;;;23.99;22.26;96072.22;4871544;28;20283;-62
2022/04/18 10:48:13;;;;;;;3.65;1.70;;;30.10;15.20;;;24.19;22.39;96057.88;4875683;28;21078;-63
2022/04/18 10:50:45;;;;;;;3.80;2.00;;;30.20;15.60;;;24.44;22.71;96055.09;4838894;28;20425;-63
2022/04/18 10:53:24;;;;;;;3.50;1.83;;;30.50;16.50;;;24.60;22.10;96058.50;4858549;28;20308;-63
2022/04/18 10:55:53;;;;;;;2.95;1.80;;;30.30;14.70;;;24.73;21.36;96055.19;4903630;28;20465;-63
2022/04/18 10:58:37;;;;;;;4.88;1.80;;;30.10;14.80;;;24.84;20.49;96051.34;4907647;28;20405;-63
2022/04/18 11:01:08;;;;;;;4.65;2.25;;;30.00;14.00;;;24.88;21.32;96048.88;4866223;28;20390;-62
2022/04/18 11:03:49;;;;;;;5.20;3.80;;;30.10;14.90;;;25.20;20.63;96045.72;4911878;28;20354;-63
2022/04/18 11:06:18;;;;;;;2.08;1.60;;;30.50;14.70;;;25.26;20.67;96045.38;4908165;28;20568;-62
2022/04/18 11:09:11;;;;;;;2.33;1.58;;;30.30;15.00;;;25.38;19.88;96036.94;4901346;28;20450;-62
2022/04/18 11:11:40;;;;;;;1.52;1.35;;;30.40;14.90;;;25.52;20.91;96037.84;4872221;28;20754;-63
2022/04/18 11:14:30;;;;;;;2.50;1.60;;;30.40;14.60;;;25.72;20.03;96036.88;4867732;28;20651;-61
2022/04/18 11:17:01;;;;;;;1.67;1.33;;;30.60;14.50;;;25.69;19.75;96023.16;4900517;28;20348;-62
2022/04/18 11:19:37;;;;;;;2.65;1.38;;;30.60;14.30;;;25.79;19.33;96036.50;4867877;28;20502;-63
2022/04/18 11:22:21;;;;;;;2.92;1.70;;;31.00;14.30;;;26.02;19.94;96024.91;4892004;28;20127;-62
2022/04/18 11:24:54;;;;;;;2.63;1.40;;;31.60;14.50;;;25.92;19.86;96031.25;4875637;28;20352;-62
2022/04/18 11:27:32;;;;;;;3.25;1.60;;;31.20;13.60;;;25.71;19.19;96027.19;4897047;28;20402;-62
2022/04/18 11:30:05;;;;;;;2.85;1.38;;;31.20;13.60;;;25.74;19.56;96023.09;4904638;28;20439;-63
2022/04/18 11:32:37;;;;;;;2.30;1.40;;;31.80;13.80;;;26.00;20.34;96016.31;4886254;28;20356;-63
2022/04/18 11:35:06;;;;;;;3.28;1.55;;;32.50;13.00;;;26.18;20.22;96020.94;4866625;28;20311;-62
2022/04/18 11:37:34;;;;;;;2.58;1.60;;;32.70;12.90;;;26.21;20.48;96023.06;4867481;28;20380;-62
2022/04/18 11:40:06;;;;;;;2.63;1.27;;;32.50;12.30;;;26.35;19.32;96011.59;4880763;28;20689;-62
2022/04/18 11:42:32;;;;;;;2.08;1.40;;;33.00;12.60;;;26.60;20.25;96008.53;4889703;28;20562;-62
2022/04/18 11:45:02;;;;;;;3.17;2.00;;;33.20;13.00;;;26.62;19.96;96008.22;4893470;28;20712;-62
2022/04/18 11:47:31;;;;;;;3.73;1.90;;;33.00;12.90;;;26.83;19.95;96010.31;4879284;28;20050;-60
2022/04/18 11:50:01;;;;;;;3.80;1.77;;;33.60;12.80;;;27.08;20.02;95998.31;4897573;28;20580;-62
2022/04/18 11:52:30;;;;;;;2.78;1.38;;;34.10;13.20;;;27.24;20.78;95996.16;4881499;28;20437;-62
2022/04/18 11:55:05;;;;;;;3.30;1.77;;;34.10;12.30;;;27.40;19.50;96000.19;4861994;28;20572;-63
2022/04/18 11:57:34;;;;;;;3.20;1.52;;;34.20;12.60;;;27.63;19.51;95992.25;4850467;28;20482;-63
2022/04/18 12:00:00;;;;;;;1.83;1.30;;;34.30;11.50;;;27.82;19.21;95984.81;4877578;28;20669;-62
2022/04/18 12:08:11;;;;;;;2.58;1.70;;;34.10;12.40;;;28.07;17.90;95980.81;4885030;28;20438;-62
2022/04/18 12:10:41;;;;;;;3.47;1.50;;;33.70;12.10;;;28.26;18.85;95975.25;4864961;28;20467;-62
2022/04/18 12:13:08;;;;;;;;;;;33.90;12.00;;;28.50;17.80;95978.50;4886227;28;20418;-63
2022/04/18 12:15:35;;;;;;;2.65;1.50;;;34.30;12.40;;;28.67;19.54;95972.41;4914636;28;20599;-63
2022/04/18 12:18:17;;;;;;;1.52;1.20;;;34.40;12.20;;;28.59;17.55;95971.25;4871654;28;20355;-62
2022/04/18 12:20:45;;;;;;;1.75;1.33;;;34.10;12.10;;;28.82;18.39;95963.94;4882265;28;20192;-64
2022/04/18 12:23:24;;;;;;;2.13;1.55;;;34.50;12.70;;;28.67;16.62;95967.81;4916249;28;20344;-63
2022/04/18 12:25:59;;;;;;;3.05;1.55;;;33.70;12.00;;;28.70;16.96;95966.38;4901948;28;20822;-64
2022/04/18 12:28:29;;;;;;;3.13;1.98;;;33.90;12.60;;;28.62;17.33;95962.53;4867892;28;20442;-64
2022/04/18 12:30:56;;;;;;;2.65;1.20;;;33.50;12.30;;;28.78;18.20;95965.66;4852233;28;20357;-63
2022/04/18 12:33:24;;;;;;;1.85;1.50;;;34.00;12.20;;;28.82;17.69;95957.72;4870291;28;20391;-64
2022/04/18 12:35:54;;;;;;;3.75;1.50;;;34.20;12.50;;;29.02;18.11;95954.53;4886263;28;20537;-64
2022/04/18 12:38:35;;;;;;;2.88;1.70;;;34.50;12.70;;;29.26;16.83;95946.06;4883914;28;20350;-65
2022/04/18 12:41:01;;;;;;;3.05;1.40;;;34.70;12.20;;;29.54;18.26;95946.69;4897661;28;20360;-65
2022/04/18 12:43:29;;;;;;;2.83;1.15;;;34.90;12.90;;;29.75;18.66;95947.69;4862943;28;20647;-65
2022/04/18 12:46:07;;;;;;;3.83;1.48;;;35.50;12.60;;;29.85;16.94;95941.97;4887008;28;20447;-64
2022/04/18 12:48:34;;;;;;;1.85;1.23;;;35.60;11.40;;;29.90;18.14;95948.38;4877809;28;20408;-64
2022/04/18 12:51:02;;;;;;;4.00;1.63;;;36.30;11.70;;;29.95;17.68;95943.59;4852412;28;20438;-65
2022/04/18 12:53:53;;;;;;;1.88;1.25;;;36.60;11.00;;;29.88;16.79;95944.06;4885019;28;20350;-63
2022/04/18 12:56:23;;;;;;;1.95;1.35;;;36.50;11.20;;;29.97;16.73;95944.09;4891980;28;20405;-64
2022/04/18 12:58:55;;;;;;;2.03;1.25;;;36.40;11.00;;;29.86;16.32;95932.72;4901134;28;20440;-65